Aérodrome :
LOGIN :

S'inscrire | Disclaimer

   EN    FR    IT 

 










Légende :    VFR   VFR Marginal   IFR   IFR Intensif   IFR Très Intensif
Visi : 
Plafond : 
>= 8 km
>= 3000ft
5 à 8 km
1000 à 3000 ft
1500m à 5 km
500 à 1000 ft
800 à 1500m
200 à 500 ft
< 800m
< 200 ft
Symboles :   Orages  Brouillard  Fortes neiges  Fortes précipitations  Vent > 20 kt
SIGMETs :   Divers  Orages  Givrage  Turbulence  Onde Orograph.  Cendres Volcan.






- Altitude de l'aérodrome : 348 ft
- Code IATA : LDV


LFRJ - Landivisiau

DERNIER METAR :
  • 250700Z AUTO VRB02KT 0300 0150 R25/0150N R07/0375N FG VV/// 00/00 Q1031 TEMPO 0400 FZFG

METARs EXPIRÉS :
  • 250630Z AUTO 16003KT 0550 0300 R25/0375N R07/1000D FG VV/// 01/01 Q1031 TEMPO 0400 FZFG
  • 250600Z AUTO 15003KT 1000 0700 R25/1000D R07/1600D BCFG VV/// 01/01 Q1031 TEMPO 0400 FZFG
  • 250530Z AUTO 12003KT 080V140 1100 0800 R25/1000N R07/P2000 BCFG OVC002 01/01 Q1031 TEMPO 0400 FZFG VV///
  • 250500Z AUTO 20003KT 130V260 1500 0900 R25/1700U R07/P2000 BCFG VV/// 01/01 Q1031
  • 250430Z AUTO VRB02KT 1100 1000 R25/1400D R07/1700N BR VV/// 01/01 Q1031

TAF TAF LFRJ
Valide du 25 à 06h jusqu'au 25 à 15h UTC


250500Z 2506/2515 23004KT 2000 BR OVC002
TEMPO 2506/2509 0800 FG VV///
PROB30
TEMPO 2506/2509 0400 FZFG
BECMG 2510/2512 8000 NSW OVC004
BECMG 2512/2514 OVC008



MET'MAP, la Météo Aéronautique d'un coup d'oeil ! - Copyright ORBIFLY Décembre 2007 - Disclaimer

ORBIFLY MET'MAP TEAM :

Programmation & Développement : Alexandra Zaïnal
Sur une idée originale de : Baudouin d'Aumeries
Soutien technique & logistique : Manuel Goepfert
Assistance : Marc-Olivier Méhu

Contact : metmap@orbifly.com




SOURCES & CREDITS :

   NOAA